createdAt,value
2018-07-20T00:03:17.000Z,30.629
2018-07-20T00:13:14.000Z,30.657
2018-07-20T00:23:13.000Z,30.589
2018-07-20T00:33:13.000Z,30.552
2018-07-20T00:43:13.000Z,30.383
2018-07-20T00:53:13.000Z,30.284
2018-07-20T01:03:13.000Z,30.587
2018-07-20T01:13:13.000Z,30.632
2018-07-20T01:23:13.000Z,30.608
2018-07-20T01:33:13.000Z,30.827
2018-07-20T01:43:13.000Z,30.87
2018-07-20T01:53:13.000Z,30.967
2018-07-20T02:03:13.000Z,31.054
2018-07-20T02:13:13.000Z,31.25
2018-07-20T02:23:13.000Z,31.248
2018-07-20T02:33:13.000Z,31.345
2018-07-20T02:43:13.000Z,31.455
2018-07-20T02:53:14.000Z,31.564
2018-07-20T03:03:15.000Z,31.803
2018-07-20T03:13:13.000Z,31.712
2018-07-20T03:23:14.000Z,32.032
2018-07-20T03:33:13.000Z,31.869
2018-07-20T03:43:13.000Z,31.78
2018-07-20T03:53:13.000Z,32.083
2018-07-20T04:03:13.000Z,31.798
2018-07-20T04:13:13.000Z,32.127
2018-07-20T04:23:13.000Z,32.016
2018-07-20T04:33:14.000Z,32.522
2018-07-20T04:43:13.000Z,32.002
2018-07-20T04:53:13.000Z,32.235
2018-07-20T05:03:13.000Z,32.423
2018-07-20T05:13:13.000Z,32.5
2018-07-20T05:23:13.000Z,32.954
2018-07-20T05:33:13.000Z,32.401
2018-07-20T05:43:14.000Z,32.358
2018-07-20T05:53:13.000Z,32.13
2018-07-20T06:03:13.000Z,32.334
2018-07-20T06:13:13.000Z,33.139
2018-07-20T06:23:13.000Z,33.452
2018-07-20T06:33:13.000Z,33.609
2018-07-20T06:43:13.000Z,33.361
2018-07-20T06:53:13.000Z,33.174
2018-07-20T07:03:13.000Z,32.969
2018-07-20T07:13:13.000Z,32.799
2018-07-20T07:23:13.000Z,33.424
2018-07-20T07:33:13.000Z,33.76
2018-07-20T07:43:13.000Z,33.103
2018-07-20T07:53:13.000Z,33.182
2018-07-20T08:03:14.000Z,33.142
2018-07-20T08:13:14.000Z,32.177
2018-07-20T08:23:14.000Z,31.942
2018-07-20T08:33:14.000Z,31.531
2018-07-20T08:43:14.000Z,31.203
2018-07-20T08:53:14.000Z,30.776
2018-07-20T09:03:14.000Z,30.492
2018-07-20T09:13:15.000Z,29.948
2018-07-20T09:23:14.000Z,29.696
2018-07-20T09:33:14.000Z,29.655
2018-07-20T09:43:14.000Z,29.022
2018-07-20T09:53:14.000Z,28.946
2018-07-20T10:03:15.000Z,27.724
2018-07-20T10:13:14.000Z,27.862
2018-07-20T10:23:14.000Z,27.929
2018-07-20T10:33:14.000Z,27.795
2018-07-20T10:43:14.000Z,27.484
2018-07-20T10:53:14.000Z,26.578
2018-07-20T11:03:14.000Z,26.177
2018-07-20T11:13:14.000Z,25.39
2018-07-20T11:23:14.000Z,25.147
2018-07-20T11:33:14.000Z,25.014
2018-07-20T11:43:16.000Z,24.242
2018-07-20T11:53:14.000Z,24.666
2018-07-20T12:03:14.000Z,24.709
2018-07-20T12:13:14.000Z,24.668
2018-07-20T12:23:14.000Z,24.875
2018-07-20T12:33:14.000Z,24.392
2018-07-20T12:43:14.000Z,24.017
2018-07-20T12:53:14.000Z,24.363
2018-07-20T13:03:14.000Z,23.669
2018-07-20T13:13:14.000Z,24.047
2018-07-20T13:23:14.000Z,24.172
2018-07-20T13:33:14.000Z,25.013
2018-07-20T13:43:14.000Z,24.731
2018-07-20T13:53:14.000Z,24.918
2018-07-20T14:03:14.000Z,25.335
2018-07-20T14:13:15.000Z,24.856
2018-07-20T14:23:14.000Z,24.089
2018-07-20T14:33:14.000Z,23.903
2018-07-20T14:43:14.000Z,24.828
2018-07-20T14:53:15.000Z,24.919
2018-07-20T15:03:14.000Z,24.854
2018-07-20T15:13:14.000Z,25.046
2018-07-20T15:23:14.000Z,24.945
2018-07-20T15:33:14.000Z,24.706
2018-07-20T15:43:14.000Z,26.055
2018-07-20T15:53:14.000Z,26.97
2018-07-20T16:03:14.000Z,26.825
2018-07-20T16:13:15.000Z,27.001
2018-07-20T16:23:15.000Z,27.359
2018-07-20T16:33:15.000Z,27.603
2018-07-20T16:43:15.000Z,25.906
2018-07-20T16:53:15.000Z,26.139
2018-07-20T17:03:15.000Z,25.209
2018-07-20T17:13:15.000Z,25.034
2018-07-20T17:23:15.000Z,23.446
2018-07-20T17:33:15.000Z,24.174
2018-07-20T17:43:15.000Z,23.683
2018-07-20T17:53:15.000Z,23.758
2018-07-20T18:03:15.000Z,22.75
2018-07-20T18:13:16.000Z,23.319
2018-07-20T18:23:15.000Z,23.619
2018-07-20T18:33:15.000Z,23.471
2018-07-20T18:43:15.000Z,23.403
2018-07-20T18:53:15.000Z,23.78
2018-07-20T19:03:15.000Z,24.236
2018-07-20T19:13:15.000Z,24.481
2018-07-20T19:23:15.000Z,24.643
2018-07-20T19:33:15.000Z,24.507
2018-07-20T19:43:15.000Z,24.594
2018-07-20T19:53:15.000Z,24.331
2018-07-20T20:03:15.000Z,24.644
2018-07-20T20:13:15.000Z,24.642
2018-07-20T20:23:15.000Z,25.132
2018-07-20T20:33:15.000Z,25.778
2018-07-20T20:43:15.000Z,25.596
2018-07-20T20:53:15.000Z,26.019
2018-07-20T21:03:15.000Z,24.907
2018-07-20T21:13:15.000Z,25.678
2018-07-20T21:23:15.000Z,25.988
2018-07-20T21:33:15.000Z,26.076
2018-07-20T21:43:15.000Z,25.793
2018-07-20T21:53:15.000Z,26.026
2018-07-20T22:03:16.000Z,25.698
2018-07-20T22:13:16.000Z,25.664
2018-07-20T22:23:15.000Z,25.518
2018-07-20T22:33:15.000Z,25.749
2018-07-20T22:43:15.000Z,25.949
2018-07-20T22:53:15.000Z,26.384
2018-07-20T23:03:15.000Z,26.885
2018-07-20T23:13:15.000Z,27.935
2018-07-20T23:23:15.000Z,28.31
2018-07-20T23:33:15.000Z,28.198
2018-07-20T23:43:15.000Z,28.271
2018-07-20T23:53:15.000Z,28.372
